sensor_id;sensor_type;location;lat;lon;timestamp;pressure;altitude;pressure_sealevel;temperature;humidity
14882;BME280;7533;51.278;12.588;2022-08-19T00:00:57;99507.81;;;25.57;81.83
14882;BME280;7533;51.278;12.588;2022-08-19T00:06:00;99507.97;;;25.55;82.79
14882;BME280;7533;51.278;12.588;2022-08-19T00:11:05;99517.13;;;25.54;83.08
14882;BME280;7533;51.278;12.588;2022-08-19T00:16:15;99512.53;;;25.27;83.86
14882;BME280;7533;51.278;12.588;2022-08-19T00:21:26;99480.84;;;25.00;85.21
14882;BME280;7533;51.278;12.588;2022-08-19T00:26:30;99491.75;;;25.18;84.92
14882;BME280;7533;51.278;12.588;2022-08-19T00:31:33;99490.66;;;25.01;85.41
14882;BME280;7533;51.278;12.588;2022-08-19T00:36:36;99484.69;;;25.08;85.43
14882;BME280;7533;51.278;12.588;2022-08-19T00:41:41;99494.47;;;25.18;85.14
14882;BME280;7533;51.278;12.588;2022-08-19T00:46:46;99486.03;;;25.31;84.01
14882;BME280;7533;51.278;12.588;2022-08-19T00:52:02;99480.44;;;25.32;83.95
14882;BME280;7533;51.278;12.588;2022-08-19T00:57:09;99482.06;;;25.25;84.37
14882;BME280;7533;51.278;12.588;2022-08-19T01:02:16;99485.34;;;25.19;84.83
14882;BME280;7533;51.278;12.588;2022-08-19T01:07:19;99494.66;;;25.07;85.60
14882;BME280;7533;51.278;12.588;2022-08-19T01:12:23;99461.72;;;25.02;85.77
14882;BME280;7533;51.278;12.588;2022-08-19T01:17:26;99446.22;;;25.04;85.48
14882;BME280;7533;51.278;12.588;2022-08-19T01:22:35;99453.31;;;25.05;85.98
14882;BME280;7533;51.278;12.588;2022-08-19T01:27:46;99452.41;;;25.24;85.30
14882;BME280;7533;51.278;12.588;2022-08-19T01:32:54;99457.59;;;25.35;83.88
14882;BME280;7533;51.278;12.588;2022-08-19T01:38:00;99451.34;;;25.35;84.05
14882;BME280;7533;51.278;12.588;2022-08-19T01:43:05;99402.16;;;25.12;84.71
14882;BME280;7533;51.278;12.588;2022-08-19T01:48:08;99382.25;;;24.75;86.81
14882;BME280;7533;51.278;12.588;2022-08-19T01:53:12;99394.97;;;24.93;86.56
14882;BME280;7533;51.278;12.588;2022-08-19T01:58:19;99397.06;;;24.99;85.25
14882;BME280;7533;51.278;12.588;2022-08-19T02:03:23;99403.16;;;25.11;85.21
14882;BME280;7533;51.278;12.588;2022-08-19T02:08:29;99413.56;;;25.15;84.69
14882;BME280;7533;51.278;12.588;2022-08-19T02:13:33;99408.22;;;25.23;84.71
14882;BME280;7533;51.278;12.588;2022-08-19T02:18:36;99417.91;;;25.26;84.27
14882;BME280;7533;51.278;12.588;2022-08-19T02:23:40;99429.59;;;25.26;84.80
14882;BME280;7533;51.278;12.588;2022-08-19T02:28:43;99424.25;;;25.35;83.78
14882;BME280;7533;51.278;12.588;2022-08-19T02:33:47;99418.09;;;25.42;83.46
14882;BME280;7533;51.278;12.588;2022-08-19T02:38:51;99407.47;;;25.49;83.19
14882;BME280;7533;51.278;12.588;2022-08-19T02:43:57;99386.72;;;25.57;82.48
14882;BME280;7533;51.278;12.588;2022-08-19T02:49:20;99375.13;;;25.65;82.10
14882;BME280;7533;51.278;12.588;2022-08-19T02:54:24;99369.09;;;25.71;81.74
14882;BME280;7533;51.278;12.588;2022-08-19T02:59:29;99397.97;;;25.80;81.20
14882;BME280;7533;51.278;12.588;2022-08-19T03:04:32;99432.75;;;25.85;81.23
14882;BME280;7533;51.278;12.588;2022-08-19T03:09:37;99458.16;;;25.84;81.71
14882;BME280;7533;51.278;12.588;2022-08-19T03:14:40;99474.03;;;25.79;82.00
14882;BME280;7533;51.278;12.588;2022-08-19T03:19:43;99468.16;;;25.83;81.76
14882;BME280;7533;51.278;12.588;2022-08-19T03:24:47;99475.91;;;25.78;82.21
14882;BME280;7533;51.278;12.588;2022-08-19T03:29:50;99463.19;;;25.79;81.63
14882;BME280;7533;51.278;12.588;2022-08-19T03:34:53;99482.50;;;25.76;81.81
14882;BME280;7533;51.278;12.588;2022-08-19T03:39:57;99510.88;;;25.72;82.89
14882;BME280;7533;51.278;12.588;2022-08-19T03:45:01;99515.03;;;25.66;83.24
14882;BME280;7533;51.278;12.588;2022-08-19T03:50:04;99501.31;;;25.50;84.11
14882;BME280;7533;51.278;12.588;2022-08-19T03:55:09;99499.41;;;25.60;83.64
14882;BME280;7533;51.278;12.588;2022-08-19T04:00:13;99501.50;;;25.66;83.06
14882;BME280;7533;51.278;12.588;2022-08-19T04:05:16;99508.78;;;25.66;82.98
14882;BME280;7533;51.278;12.588;2022-08-19T04:10:26;99512.94;;;25.60;83.34
14882;BME280;7533;51.278;12.588;2022-08-19T04:15:30;99495.91;;;25.68;82.64
14882;BME280;7533;51.278;12.588;2022-08-19T04:20:42;99504.19;;;25.76;82.58
14882;BME280;7533;51.278;12.588;2022-08-19T04:25:47;99503.03;;;25.41;84.38
14882;BME280;7533;51.278;12.588;2022-08-19T04:30:51;99481.53;;;25.12;86.28
14882;BME280;7533;51.278;12.588;2022-08-19T04:35:54;99476.78;;;24.87;86.97
14882;BME280;7533;51.278;12.588;2022-08-19T04:41:02;99466.00;;;24.67;87.75
14882;BME280;7533;51.278;12.588;2022-08-19T04:46:23;99472.00;;;24.51;88.09
14882;BME280;7533;51.278;12.588;2022-08-19T04:51:46;99496.22;;;24.34;88.96
14882;BME280;7533;51.278;12.588;2022-08-19T04:56:52;99499.66;;;24.16;89.84
14882;BME280;7533;51.278;12.588;2022-08-19T05:01:55;99497.66;;;23.99;91.02
14882;BME280;7533;51.278;12.588;2022-08-19T05:06:59;99498.66;;;23.88;91.24
14882;BME280;7533;51.278;12.588;2022-08-19T05:12:04;99500.63;;;23.77;91.84
14882;BME280;7533;51.278;12.588;2022-08-19T05:17:08;99511.28;;;23.68;92.80
14882;BME280;7533;51.278;12.588;2022-08-19T05:22:30;99503.28;;;23.57;93.40
14882;BME280;7533;51.278;12.588;2022-08-19T05:27:38;99515.16;;;23.45;93.98
14882;BME280;7533;51.278;12.588;2022-08-19T05:32:42;99505.06;;;23.37;94.35
14882;BME280;7533;51.278;12.588;2022-08-19T05:37:44;99521.41;;;23.36;95.12
14882;BME280;7533;51.278;12.588;2022-08-19T05:42:49;99538.88;;;23.32;94.88
14882;BME280;7533;51.278;12.588;2022-08-19T05:47:56;99540.00;;;23.29;95.33
14882;BME280;7533;51.278;12.588;2022-08-19T05:52:59;99542.97;;;23.26;95.67
14882;BME280;7533;51.278;12.588;2022-08-19T05:58:04;99549.22;;;23.27;96.18
14882;BME280;7533;51.278;12.588;2022-08-19T06:03:09;99548.97;;;23.30;95.57
14882;BME280;7533;51.278;12.588;2022-08-19T06:08:13;99558.03;;;23.29;95.98
14882;BME280;7533;51.278;12.588;2022-08-19T06:13:18;99560.72;;;23.29;96.45
14882;BME280;7533;51.278;12.588;2022-08-19T06:18:21;99566.72;;;23.32;95.97
14882;BME280;7533;51.278;12.588;2022-08-19T06:23:24;99565.88;;;23.32;95.66
14882;BME280;7533;51.278;12.588;2022-08-19T06:28:28;99576.72;;;23.41;95.31
14882;BME280;7533;51.278;12.588;2022-08-19T06:33:31;99594.16;;;23.68;93.75
14882;BME280;7533;51.278;12.588;2022-08-19T06:38:34;99612.72;;;23.82;92.54
14882;BME280;7533;51.278;12.588;2022-08-19T06:43:38;99635.19;;;23.83;92.76
14882;BME280;7533;51.278;12.588;2022-08-19T06:48:42;99639.31;;;23.87;91.82
14882;BME280;7533;51.278;12.588;2022-08-19T06:53:47;99648.44;;;23.86;92.04
14882;BME280;7533;51.278;12.588;2022-08-19T06:58:56;99650.38;;;23.74;92.60
14882;BME280;7533;51.278;12.588;2022-08-19T07:03:59;99662.19;;;23.83;92.12
14882;BME280;7533;51.278;12.588;2022-08-19T07:09:04;99670.50;;;23.91;91.12
14882;BME280;7533;51.278;12.588;2022-08-19T07:14:09;99670.22;;;23.94;90.56
14882;BME280;7533;51.278;12.588;2022-08-19T07:19:21;99676.41;;;23.85;90.75
14882;BME280;7533;51.278;12.588;2022-08-19T07:24:25;99691.63;;;23.76;91.41
14882;BME280;7533;51.278;12.588;2022-08-19T07:29:36;99678.25;;;23.74;91.28
14882;BME280;7533;51.278;12.588;2022-08-19T07:34:39;99682.81;;;23.74;91.65
14882;BME280;7533;51.278;12.588;2022-08-19T07:39:43;99676.34;;;23.65;91.96
14882;BME280;7533;51.278;12.588;2022-08-19T07:44:47;99694.31;;;23.55;92.17
14882;BME280;7533;51.278;12.588;2022-08-19T07:49:51;99695.84;;;23.48;92.57
14882;BME280;7533;51.278;12.588;2022-08-19T07:54:54;99694.31;;;23.55;92.36
14882;BME280;7533;51.278;12.588;2022-08-19T07:59:58;99692.88;;;23.51;92.25
14882;BME280;7533;51.278;12.588;2022-08-19T08:05:02;99683.25;;;23.58;92.08
14882;BME280;7533;51.278;12.588;2022-08-19T08:10:22;99689.06;;;23.54;92.24
14882;BME280;7533;51.278;12.588;2022-08-19T08:15:28;99704.03;;;23.58;91.95
14882;BME280;7533;51.278;12.588;2022-08-19T08:20:30;99708.81;;;23.54;92.00
14882;BME280;7533;51.278;12.588;2022-08-19T08:25:34;99714.94;;;23.56;91.83
14882;BME280;7533;51.278;12.588;2022-08-19T08:30:39;99711.00;;;23.60;91.27
14882;BME280;7533;51.278;12.588;2022-08-19T08:35:45;99711.97;;;23.59;91.34
14882;BME280;7533;51.278;12.588;2022-08-19T08:40:50;99713.69;;;23.60;91.65
14882;BME280;7533;51.278;12.588;2022-08-19T08:46:01;99719.72;;;23.64;91.55
14882;BME280;7533;51.278;12.588;2022-08-19T08:51:10;99733.34;;;23.62;91.43
14882;BME280;7533;51.278;12.588;2022-08-19T08:56:20;99741.84;;;23.58;91.56
14882;BME280;7533;51.278;12.588;2022-08-19T09:01:25;99736.31;;;23.59;91.83
14882;BME280;7533;51.278;12.588;2022-08-19T09:06:36;99732.47;;;23.62;91.40
14882;BME280;7533;51.278;12.588;2022-08-19T09:11:50;99726.13;;;23.63;91.79
14882;BME280;7533;51.278;12.588;2022-08-19T09:16:58;99717.53;;;23.58;91.39
14882;BME280;7533;51.278;12.588;2022-08-19T09:22:02;99724.50;;;23.60;91.46
14882;BME280;7533;51.278;12.588;2022-08-19T09:27:04;99731.56;;;23.52;91.70
14882;BME280;7533;51.278;12.588;2022-08-19T09:32:20;99746.78;;;23.53;91.67
14882;BME280;7533;51.278;12.588;2022-08-19T09:37:27;99728.59;;;23.55;91.34
14882;BME280;7533;51.278;12.588;2022-08-19T09:42:30;99729.28;;;23.57;91.05
14882;BME280;7533;51.278;12.588;2022-08-19T09:47:37;99724.88;;;23.56;91.19
14882;BME280;7533;51.278;12.588;2022-08-19T09:52:41;99717.94;;;23.53;91.14
14882;BME280;7533;51.278;12.588;2022-08-19T09:58:01;99682.13;;;23.30;92.60
14882;BME280;7533;51.278;12.588;2022-08-19T10:03:06;99670.66;;;23.17;94.46
14882;BME280;7533;51.278;12.588;2022-08-19T10:08:09;99687.66;;;23.08;95.11
14882;BME280;7533;51.278;12.588;2022-08-19T10:13:17;99702.31;;;22.94;94.25
14882;BME280;7533;51.278;12.588;2022-08-19T10:18:24;99716.31;;;22.77;94.62
14882;BME280;7533;51.278;12.588;2022-08-19T10:23:27;99718.22;;;22.65;95.31
14882;BME280;7533;51.278;12.588;2022-08-19T10:28:36;99727.47;;;22.51;95.22
14882;BME280;7533;51.278;12.588;2022-08-19T10:33:41;99736.41;;;22.52;95.70
14882;BME280;7533;51.278;12.588;2022-08-19T10:38:55;99731.91;;;22.41;94.83
14882;BME280;7533;51.278;12.588;2022-08-19T10:44:02;99727.88;;;22.35;94.60
14882;BME280;7533;51.278;12.588;2022-08-19T10:49:09;99740.50;;;22.35;94.63
14882;BME280;7533;51.278;12.588;2022-08-19T10:54:12;99740.34;;;22.36;95.12
14882;BME280;7533;51.278;12.588;2022-08-19T10:59:15;99735.19;;;22.44;96.53
14882;BME280;7533;51.278;12.588;2022-08-19T11:04:20;99728.66;;;22.58;94.78
14882;BME280;7533;51.278;12.588;2022-08-19T11:09:29;99734.66;;;22.62;94.06
14882;BME280;7533;51.278;12.588;2022-08-19T11:14:35;99738.94;;;22.64;93.54
14882;BME280;7533;51.278;12.588;2022-08-19T11:19:40;99755.81;;;22.78;94.41
14882;BME280;7533;51.278;12.588;2022-08-19T11:24:43;99754.84;;;22.79;92.07
14882;BME280;7533;51.278;12.588;2022-08-19T11:29:46;99760.34;;;22.88;90.84
14882;BME280;7533;51.278;12.588;2022-08-19T11:34:50;99769.78;;;22.94;90.72
14882;BME280;7533;51.278;12.588;2022-08-19T11:39:53;99779.00;;;22.91;90.54
14882;BME280;7533;51.278;12.588;2022-08-19T11:44:56;99772.75;;;22.80;90.44
14882;BME280;7533;51.278;12.588;2022-08-19T11:50:00;99770.03;;;22.80;91.19
14882;BME280;7533;51.278;12.588;2022-08-19T11:55:04;99766.59;;;22.89;90.26
14882;BME280;7533;51.278;12.588;2022-08-19T12:00:07;99757.28;;;22.93;90.71
14882;BME280;7533;51.278;12.588;2022-08-19T12:05:13;99754.56;;;22.93;89.24
14882;BME280;7533;51.278;12.588;2022-08-19T12:10:16;99746.03;;;23.09;89.46
14882;BME280;7533;51.278;12.588;2022-08-19T12:15:21;99738.94;;;23.29;87.69
14882;BME280;7533;51.278;12.588;2022-08-19T12:20:25;99738.22;;;23.47;87.38
14882;BME280;7533;51.278;12.588;2022-08-19T12:25:28;99742.09;;;23.55;87.38
14882;BME280;7533;51.278;12.588;2022-08-19T12:30:32;99740.81;;;23.70;87.34
14882;BME280;7533;51.278;12.588;2022-08-19T12:35:39;99743.09;;;23.74;85.98
14882;BME280;7533;51.278;12.588;2022-08-19T12:40:46;99745.53;;;23.78;85.93
14882;BME280;7533;51.278;12.588;2022-08-19T12:45:50;99755.53;;;23.87;84.35
14882;BME280;7533;51.278;12.588;2022-08-19T12:50:54;99756.69;;;23.94;85.05
14882;BME280;7533;51.278;12.588;2022-08-19T12:55:57;99750.59;;;24.01;83.45
14882;BME280;7533;51.278;12.588;2022-08-19T13:01:06;99754.09;;;24.13;83.48
14882;BME280;7533;51.278;12.588;2022-08-19T13:06:10;99759.06;;;24.18;83.26
14882;BME280;7533;51.278;12.588;2022-08-19T13:11:16;99761.81;;;24.27;82.63
14882;BME280;7533;51.278;12.588;2022-08-19T13:16:19;99771.53;;;24.30;82.93
14882;BME280;7533;51.278;12.588;2022-08-19T13:21:26;99770.03;;;24.47;82.61
14882;BME280;7533;51.278;12.588;2022-08-19T13:26:31;99763.91;;;24.54;80.73
14882;BME280;7533;51.278;12.588;2022-08-19T13:31:40;99760.06;;;24.57;81.06
14882;BME280;7533;51.278;12.588;2022-08-19T13:37:03;99772.25;;;24.82;80.85
14882;BME280;7533;51.278;12.588;2022-08-19T13:42:07;99762.97;;;24.75;80.10
14882;BME280;7533;51.278;12.588;2022-08-19T13:47:11;99763.09;;;24.73;79.86
14882;BME280;7533;51.278;12.588;2022-08-19T13:52:17;99759.13;;;24.77;80.79
14882;BME280;7533;51.278;12.588;2022-08-19T13:57:20;99755.41;;;24.78;80.45
14882;BME280;7533;51.278;12.588;2022-08-19T14:02:23;99755.41;;;24.78;80.25
14882;BME280;7533;51.278;12.588;2022-08-19T14:07:27;99767.69;;;24.92;80.58
14882;BME280;7533;51.278;12.588;2022-08-19T14:12:30;99758.31;;;25.06;80.09
14882;BME280;7533;51.278;12.588;2022-08-19T14:17:34;99763.72;;;25.06;79.45
14882;BME280;7533;51.278;12.588;2022-08-19T14:22:42;99764.31;;;25.10;78.80
14882;BME280;7533;51.278;12.588;2022-08-19T14:27:46;99756.75;;;25.23;78.84
14882;BME280;7533;51.278;12.588;2022-08-19T14:32:49;99770.00;;;25.16;79.34
14882;BME280;7533;51.278;12.588;2022-08-19T14:37:55;99774.00;;;25.12;78.68
14882;BME280;7533;51.278;12.588;2022-08-19T14:43:01;99762.72;;;25.07;78.48
14882;BME280;7533;51.278;12.588;2022-08-19T14:48:07;99770.72;;;25.09;78.88
14882;BME280;7533;51.278;12.588;2022-08-19T14:53:21;99766.72;;;25.22;79.94
14882;BME280;7533;51.278;12.588;2022-08-19T14:58:24;99765.44;;;25.26;78.38
14882;BME280;7533;51.278;12.588;2022-08-19T15:03:30;99770.56;;;25.39;77.46
14882;BME280;7533;51.278;12.588;2022-08-19T15:08:37;99769.56;;;25.30;78.17
14882;BME280;7533;51.278;12.588;2022-08-19T15:13:41;99777.56;;;25.32;78.74
14882;BME280;7533;51.278;12.588;2022-08-19T15:18:45;99780.13;;;25.24;77.78
14882;BME280;7533;51.278;12.588;2022-08-19T15:23:50;99758.59;;;25.13;78.07
14882;BME280;7533;51.278;12.588;2022-08-19T15:28:53;99746.31;;;24.99;79.67
14882;BME280;7533;51.278;12.588;2022-08-19T15:33:57;99750.72;;;24.80;79.61
14882;BME280;7533;51.278;12.588;2022-08-19T15:39:02;99764.06;;;24.63;80.00
14882;BME280;7533;51.278;12.588;2022-08-19T15:44:09;99763.88;;;24.45;80.90
14882;BME280;7533;51.278;12.588;2022-08-19T15:49:16;99761.03;;;24.46;81.45
14882;BME280;7533;51.278;12.588;2022-08-19T15:54:20;99757.22;;;24.49;80.80
14882;BME280;7533;51.278;12.588;2022-08-19T15:59:24;99756.66;;;24.55;81.89
14882;BME280;7533;51.278;12.588;2022-08-19T16:04:48;99762.78;;;24.57;81.30
14882;BME280;7533;51.278;12.588;2022-08-19T16:10:10;99756.81;;;24.63;79.98
14882;BME280;7533;51.278;12.588;2022-08-19T16:15:29;99757.81;;;24.62;78.97
14882;BME280;7533;51.278;12.588;2022-08-19T16:20:32;99742.97;;;24.57;78.59
14882;BME280;7533;51.278;12.588;2022-08-19T16:25:38;99746.09;;;24.52;79.08
14882;BME280;7533;51.278;12.588;2022-08-19T16:30:41;99746.41;;;24.49;79.30
14882;BME280;7533;51.278;12.588;2022-08-19T16:35:51;99748.09;;;24.50;79.00
14882;BME280;7533;51.278;12.588;2022-08-19T16:41:09;99747.53;;;24.56;79.53
14882;BME280;7533;51.278;12.588;2022-08-19T16:46:12;99743.84;;;24.57;78.23
14882;BME280;7533;51.278;12.588;2022-08-19T16:51:19;99761.06;;;24.56;78.11
14882;BME280;7533;51.278;12.588;2022-08-19T16:56:24;99765.63;;;24.56;77.99
14882;BME280;7533;51.278;12.588;2022-08-19T17:01:28;99769.78;;;24.60;77.58
14882;BME280;7533;51.278;12.588;2022-08-19T17:06:32;99765.91;;;24.62;76.86
14882;BME280;7533;51.278;12.588;2022-08-19T17:11:38;99774.63;;;24.66;76.63
14882;BME280;7533;51.278;12.588;2022-08-19T17:16:41;99773.63;;;24.67;76.27
14882;BME280;7533;51.278;12.588;2022-08-19T17:21:44;99756.53;;;24.66;76.68
14882;BME280;7533;51.278;12.588;2022-08-19T17:26:49;99760.25;;;24.65;76.08
14882;BME280;7533;51.278;12.588;2022-08-19T17:31:51;99751.00;;;24.58;75.79
14882;BME280;7533;51.278;12.588;2022-08-19T17:36:54;99762.06;;;24.55;75.96
14882;BME280;7533;51.278;12.588;2022-08-19T17:41:59;99767.38;;;24.66;76.84
14882;BME280;7533;51.278;12.588;2022-08-19T17:47:03;99772.22;;;24.72;76.50
14882;BME280;7533;51.278;12.588;2022-08-19T17:52:06;99783.75;;;24.84;76.63
14882;BME280;7533;51.278;12.588;2022-08-19T17:57:12;99779.25;;;25.04;75.68
14882;BME280;7533;51.278;12.588;2022-08-19T18:02:15;99766.28;;;25.17;75.43
14882;BME280;7533;51.278;12.588;2022-08-19T18:07:22;99773.41;;;25.28;75.36
14882;BME280;7533;51.278;12.588;2022-08-19T18:12:26;99770.84;;;25.36;74.76
14882;BME280;7533;51.278;12.588;2022-08-19T18:17:29;99768.44;;;25.43;75.01
14882;BME280;7533;51.278;12.588;2022-08-19T18:22:35;99768.84;;;25.38;75.76
14882;BME280;7533;51.278;12.588;2022-08-19T18:27:40;99774.53;;;25.35;75.70
14882;BME280;7533;51.278;12.588;2022-08-19T18:32:44;99783.69;;;25.34;75.16
14882;BME280;7533;51.278;12.588;2022-08-19T18:37:49;99800.78;;;25.54;75.67
14882;BME280;7533;51.278;12.588;2022-08-19T18:42:54;99813.59;;;25.71;75.21
14882;BME280;7533;51.278;12.588;2022-08-19T18:48:20;99817.00;;;25.93;74.56
14882;BME280;7533;51.278;12.588;2022-08-19T18:53:42;99818.28;;;25.98;74.35
14882;BME280;7533;51.278;12.588;2022-08-19T18:58:46;99830.53;;;26.02;74.02
14882;BME280;7533;51.278;12.588;2022-08-19T19:03:52;99829.81;;;26.10;74.17
14882;BME280;7533;51.278;12.588;2022-08-19T19:08:56;99846.69;;;26.31;73.33
14882;BME280;7533;51.278;12.588;2022-08-19T19:14:01;99828.56;;;26.32;73.76
14882;BME280;7533;51.278;12.588;2022-08-19T19:19:05;99842.00;;;26.33;73.30
14882;BME280;7533;51.278;12.588;2022-08-19T19:24:15;99852.38;;;26.48;72.91
14882;BME280;7533;51.278;12.588;2022-08-19T19:29:22;99857.97;;;26.46;72.73
14882;BME280;7533;51.278;12.588;2022-08-19T19:34:28;99848.53;;;26.50;72.63
14882;BME280;7533;51.278;12.588;2022-08-19T19:39:31;99824.34;;;26.57;72.68
14882;BME280;7533;51.278;12.588;2022-08-19T19:44:50;99829.56;;;26.68;72.18
14882;BME280;7533;51.278;12.588;2022-08-19T19:49:54;99828.88;;;26.66;72.11
14882;BME280;7533;51.278;12.588;2022-08-19T19:55:15;99825.16;;;26.67;71.79
14882;BME280;7533;51.278;12.588;2022-08-19T20:00:20;99833.31;;;26.67;72.04
14882;BME280;7533;51.278;12.588;2022-08-19T20:05:24;99826.00;;;26.68;71.96
14882;BME280;7533;51.278;12.588;2022-08-19T20:10:27;99838.41;;;26.70;71.85
14882;BME280;7533;51.278;12.588;2022-08-19T20:15:32;99850.97;;;26.71;72.23
14882;BME280;7533;51.278;12.588;2022-08-19T20:20:42;99853.31;;;26.66;71.47
14882;BME280;7533;51.278;12.588;2022-08-19T20:25:45;99848.63;;;26.58;71.63
14882;BME280;7533;51.278;12.588;2022-08-19T20:30:49;99852.09;;;26.51;71.87
14882;BME280;7533;51.278;12.588;2022-08-19T20:35:52;99846.53;;;26.43;72.06
14882;BME280;7533;51.278;12.588;2022-08-19T20:40:55;99838.56;;;26.31;73.30
14882;BME280;7533;51.278;12.588;2022-08-19T20:45:59;99833.59;;;26.27;73.38
14882;BME280;7533;51.278;12.588;2022-08-19T20:51:04;99829.44;;;26.32;73.32
14882;BME280;7533;51.278;12.588;2022-08-19T20:56:07;99814.69;;;26.35;73.34
14882;BME280;7533;51.278;12.588;2022-08-19T21:01:16;99827.25;;;26.36;73.29
14882;BME280;7533;51.278;12.588;2022-08-19T21:06:19;99837.09;;;26.37;73.26
14882;BME280;7533;51.278;12.588;2022-08-19T21:11:23;99853.56;;;26.26;72.35
14882;BME280;7533;51.278;12.588;2022-08-19T21:16:27;99870.69;;;26.26;72.61
14882;BME280;7533;51.278;12.588;2022-08-19T21:21:33;99873.41;;;26.26;72.53
14882;BME280;7533;51.278;12.588;2022-08-19T21:26:36;99881.88;;;26.23;72.62
14882;BME280;7533;51.278;12.588;2022-08-19T21:31:40;99890.00;;;26.23;72.63
14882;BME280;7533;51.278;12.588;2022-08-19T21:36:43;99885.53;;;26.42;72.53
14882;BME280;7533;51.278;12.588;2022-08-19T21:41:46;99884.47;;;26.62;71.79
14882;BME280;7533;51.278;12.588;2022-08-19T21:46:50;99874.56;;;26.71;71.66
14882;BME280;7533;51.278;12.588;2022-08-19T21:51:53;99862.09;;;26.78;71.35
14882;BME280;7533;51.278;12.588;2022-08-19T21:56:55;99861.63;;;26.82;71.20
14882;BME280;7533;51.278;12.588;2022-08-19T22:01:59;99844.34;;;26.83;71.25
14882;BME280;7533;51.278;12.588;2022-08-19T22:07:20;99847.94;;;26.84;71.21
14882;BME280;7533;51.278;12.588;2022-08-19T22:12:33;99852.19;;;26.86;71.26
14882;BME280;7533;51.278;12.588;2022-08-19T22:17:39;99844.75;;;26.88;71.16
14882;BME280;7533;51.278;12.588;2022-08-19T22:22:45;99842.03;;;26.88;71.12
14882;BME280;7533;51.278;12.588;2022-08-19T22:27:50;99844.03;;;26.86;71.10
14882;BME280;7533;51.278;12.588;2022-08-19T22:32:58;99840.31;;;26.87;71.16
14882;BME280;7533;51.278;12.588;2022-08-19T22:38:03;99850.31;;;26.87;71.42
14882;BME280;7533;51.278;12.588;2022-08-19T22:43:10;99851.50;;;26.84;71.59
14882;BME280;7533;51.278;12.588;2022-08-19T22:48:18;99864.34;;;26.82;71.68
14882;BME280;7533;51.278;12.588;2022-08-19T22:53:21;99871.09;;;26.78;71.79
14882;BME280;7533;51.278;12.588;2022-08-19T22:58:24;99880.72;;;26.73;71.82
14882;BME280;7533;51.278;12.588;2022-08-19T23:03:30;99873.56;;;26.72;71.77
14882;BME280;7533;51.278;12.588;2022-08-19T23:08:33;99866.41;;;26.71;71.94
14882;BME280;7533;51.278;12.588;2022-08-19T23:13:39;99853.00;;;26.69;72.03
14882;BME280;7533;51.278;12.588;2022-08-19T23:18:44;99859.59;;;26.67;72.15
14882;BME280;7533;51.278;12.588;2022-08-19T23:23:46;99860.56;;;26.66;72.12
14882;BME280;7533;51.278;12.588;2022-08-19T23:28:49;99849.19;;;26.62;72.31
14882;BME280;7533;51.278;12.588;2022-08-19T23:34:11;99860.31;;;26.59;72.63
14882;BME280;7533;51.278;12.588;2022-08-19T23:39:14;99862.34;;;26.57;72.56
14882;BME280;7533;51.278;12.588;2022-08-19T23:44:17;99858.22;;;26.53;72.83
14882;BME280;7533;51.278;12.588;2022-08-19T23:49:22;99857.69;;;26.49;72.95
14882;BME280;7533;51.278;12.588;2022-08-19T23:54:25;99861.69;;;26.45;73.01
14882;BME280;7533;51.278;12.588;2022-08-19T23:59:44;99850.09;;;26.43;73.24
